sensor_id;sensor_type;location;lat;lon;timestamp;temperature;humidity
18177;DHT22;9213;50.858;3.964;2022-08-23T00:02:14;24.60;48.60
18177;DHT22;9213;50.858;3.964;2022-08-23T00:04:42;24.60;48.50
18177;DHT22;9213;50.858;3.964;2022-08-23T00:07:13;24.70;48.70
18177;DHT22;9213;50.858;3.964;2022-08-23T00:09:40;24.70;48.60
18177;DHT22;9213;50.858;3.964;2022-08-23T00:12:13;24.70;49.40
18177;DHT22;9213;50.858;3.964;2022-08-23T00:14:43;24.70;48.90
18177;DHT22;9213;50.858;3.964;2022-08-23T00:17:10;24.60;48.80
18177;DHT22;9213;50.858;3.964;2022-08-23T00:19:37;24.60;49.00
18177;DHT22;9213;50.858;3.964;2022-08-23T00:22:05;24.50;48.80
18177;DHT22;9213;50.858;3.964;2022-08-23T00:24:33;24.50;49.00
18177;DHT22;9213;50.858;3.964;2022-08-23T00:27:02;24.50;49.20
18177;DHT22;9213;50.858;3.964;2022-08-23T00:29:34;24.50;49.40
18177;DHT22;9213;50.858;3.964;2022-08-23T00:32:02;24.50;49.50
18177;DHT22;9213;50.858;3.964;2022-08-23T00:34:29;24.50;49.50
18177;DHT22;9213;50.858;3.964;2022-08-23T00:36:56;24.40;49.70
18177;DHT22;9213;50.858;3.964;2022-08-23T00:39:24;24.40;49.40
18177;DHT22;9213;50.858;3.964;2022-08-23T00:41:51;24.40;49.60
18177;DHT22;9213;50.858;3.964;2022-08-23T00:44:27;24.30;49.80
18177;DHT22;9213;50.858;3.964;2022-08-23T00:47:15;24.30;50.00
18177;DHT22;9213;50.858;3.964;2022-08-23T00:50:08;24.20;49.80
18177;DHT22;9213;50.858;3.964;2022-08-23T00:52:41;24.20;49.70
18177;DHT22;9213;50.858;3.964;2022-08-23T00:55:10;24.10;49.90
18177;DHT22;9213;50.858;3.964;2022-08-23T00:57:37;24.10;50.00
18177;DHT22;9213;50.858;3.964;2022-08-23T01:00:06;24.00;50.00
18177;DHT22;9213;50.858;3.964;2022-08-23T01:02:35;24.00;50.00
18177;DHT22;9213;50.858;3.964;2022-08-23T01:05:03;23.90;49.90
18177;DHT22;9213;50.858;3.964;2022-08-23T01:07:40;23.90;50.10
18177;DHT22;9213;50.858;3.964;2022-08-23T01:10:15;23.90;50.30
18177;DHT22;9213;50.858;3.964;2022-08-23T01:12:47;23.90;50.40
18177;DHT22;9213;50.858;3.964;2022-08-23T01:15:20;23.80;50.50
18177;DHT22;9213;50.858;3.964;2022-08-23T01:17:54;23.80;50.50
18177;DHT22;9213;50.858;3.964;2022-08-23T01:20:24;23.80;50.50
18177;DHT22;9213;50.858;3.964;2022-08-23T01:22:55;23.70;50.60
18177;DHT22;9213;50.858;3.964;2022-08-23T01:25:26;23.70;50.70
18177;DHT22;9213;50.858;3.964;2022-08-23T01:27:54;23.60;50.80
18177;DHT22;9213;50.858;3.964;2022-08-23T01:30:24;23.60;51.00
18177;DHT22;9213;50.858;3.964;2022-08-23T01:32:53;23.60;51.10
18177;DHT22;9213;50.858;3.964;2022-08-23T01:35:28;23.60;50.90
18177;DHT22;9213;50.858;3.964;2022-08-23T01:37:55;23.50;51.20
18177;DHT22;9213;50.858;3.964;2022-08-23T01:40:22;23.50;51.20
18177;DHT22;9213;50.858;3.964;2022-08-23T01:42:51;23.40;51.00
18177;DHT22;9213;50.858;3.964;2022-08-23T01:45:17;23.40;51.10
18177;DHT22;9213;50.858;3.964;2022-08-23T01:47:44;23.40;51.30
18177;DHT22;9213;50.858;3.964;2022-08-23T01:50:12;23.30;51.40
18177;DHT22;9213;50.858;3.964;2022-08-23T01:52:40;23.30;51.60
18177;DHT22;9213;50.858;3.964;2022-08-23T01:55:07;23.30;51.80
18177;DHT22;9213;50.858;3.964;2022-08-23T01:57:34;23.30;51.80
18177;DHT22;9213;50.858;3.964;2022-08-23T02:00:04;23.30;51.80
18177;DHT22;9213;50.858;3.964;2022-08-23T02:02:32;23.40;51.60
18177;DHT22;9213;50.858;3.964;2022-08-23T02:04:59;23.40;51.40
18177;DHT22;9213;50.858;3.964;2022-08-23T02:07:26;23.40;51.70
18177;DHT22;9213;50.858;3.964;2022-08-23T02:09:54;23.30;51.60
18177;DHT22;9213;50.858;3.964;2022-08-23T02:12:21;23.30;51.60
18177;DHT22;9213;50.858;3.964;2022-08-23T02:14:48;23.30;51.70
18177;DHT22;9213;50.858;3.964;2022-08-23T02:17:16;23.30;51.40
18177;DHT22;9213;50.858;3.964;2022-08-23T02:19:44;23.30;51.40
18177;DHT22;9213;50.858;3.964;2022-08-23T02:22:11;23.20;51.40
18177;DHT22;9213;50.858;3.964;2022-08-23T02:24:40;23.30;51.50
18177;DHT22;9213;50.858;3.964;2022-08-23T02:27:07;23.20;51.50
18177;DHT22;9213;50.858;3.964;2022-08-23T02:29:35;23.20;51.50
18177;DHT22;9213;50.858;3.964;2022-08-23T02:32:03;23.20;51.60
18177;DHT22;9213;50.858;3.964;2022-08-23T02:34:31;23.20;51.60
18177;DHT22;9213;50.858;3.964;2022-08-23T02:36:58;23.10;51.60
18177;DHT22;9213;50.858;3.964;2022-08-23T02:39:25;23.10;51.70
18177;DHT22;9213;50.858;3.964;2022-08-23T02:41:52;23.10;51.70
18177;DHT22;9213;50.858;3.964;2022-08-23T02:44:20;23.00;51.60
18177;DHT22;9213;50.858;3.964;2022-08-23T02:46:47;23.00;51.80
18177;DHT22;9213;50.858;3.964;2022-08-23T02:49:14;23.00;51.90
18177;DHT22;9213;50.858;3.964;2022-08-23T02:51:43;22.90;52.10
18177;DHT22;9213;50.858;3.964;2022-08-23T02:54:10;23.00;52.10
18177;DHT22;9213;50.858;3.964;2022-08-23T02:56:37;22.90;52.20
18177;DHT22;9213;50.858;3.964;2022-08-23T02:59:04;22.90;52.20
18177;DHT22;9213;50.858;3.964;2022-08-23T03:01:33;22.90;53.00
18177;DHT22;9213;50.858;3.964;2022-08-23T03:04:02;22.80;52.10
18177;DHT22;9213;50.858;3.964;2022-08-23T03:06:29;22.80;52.30
18177;DHT22;9213;50.858;3.964;2022-08-23T03:08:58;22.80;52.40
18177;DHT22;9213;50.858;3.964;2022-08-23T03:11:25;22.70;52.40
18177;DHT22;9213;50.858;3.964;2022-08-23T03:13:53;22.70;52.50
18177;DHT22;9213;50.858;3.964;2022-08-23T03:16:21;22.70;52.50
18177;DHT22;9213;50.858;3.964;2022-08-23T03:18:48;22.70;52.60
18177;DHT22;9213;50.858;3.964;2022-08-23T03:21:16;22.60;52.60
18177;DHT22;9213;50.858;3.964;2022-08-23T03:23:43;22.60;52.70
18177;DHT22;9213;50.858;3.964;2022-08-23T03:26:12;22.60;52.80
18177;DHT22;9213;50.858;3.964;2022-08-23T03:28:40;22.60;52.70
18177;DHT22;9213;50.858;3.964;2022-08-23T03:31:09;22.50;52.70
18177;DHT22;9213;50.858;3.964;2022-08-23T03:33:37;22.50;52.90
18177;DHT22;9213;50.858;3.964;2022-08-23T03:36:06;22.50;53.20
18177;DHT22;9213;50.858;3.964;2022-08-23T03:38:33;22.40;53.20
18177;DHT22;9213;50.858;3.964;2022-08-23T03:41:01;22.40;53.10
18177;DHT22;9213;50.858;3.964;2022-08-23T03:43:29;22.40;53.10
18177;DHT22;9213;50.858;3.964;2022-08-23T03:45:56;22.40;53.00
18177;DHT22;9213;50.858;3.964;2022-08-23T03:48:23;22.40;53.20
18177;DHT22;9213;50.858;3.964;2022-08-23T03:50:50;22.40;53.30
18177;DHT22;9213;50.858;3.964;2022-08-23T03:53:17;22.40;53.60
18177;DHT22;9213;50.858;3.964;2022-08-23T03:55:44;22.40;53.70
18177;DHT22;9213;50.858;3.964;2022-08-23T03:58:11;22.50;53.90
18177;DHT22;9213;50.858;3.964;2022-08-23T04:00:40;22.50;53.90
18177;DHT22;9213;50.858;3.964;2022-08-23T04:03:07;22.60;53.80
18177;DHT22;9213;50.858;3.964;2022-08-23T04:05:34;22.60;53.40
18177;DHT22;9213;50.858;3.964;2022-08-23T04:08:06;22.60;53.20
18177;DHT22;9213;50.858;3.964;2022-08-23T04:10:33;22.60;53.10
18177;DHT22;9213;50.858;3.964;2022-08-23T04:13:00;22.60;53.00
18177;DHT22;9213;50.858;3.964;2022-08-23T04:15:27;22.60;52.90
18177;DHT22;9213;50.858;3.964;2022-08-23T04:17:57;22.50;53.00
18177;DHT22;9213;50.858;3.964;2022-08-23T04:20:24;22.50;53.20
18177;DHT22;9213;50.858;3.964;2022-08-23T04:22:52;22.50;53.00
18177;DHT22;9213;50.858;3.964;2022-08-23T04:25:19;22.40;53.00
18177;DHT22;9213;50.858;3.964;2022-08-23T04:27:46;22.40;53.30
18177;DHT22;9213;50.858;3.964;2022-08-23T04:30:13;22.40;53.50
18177;DHT22;9213;50.858;3.964;2022-08-23T04:32:40;22.30;53.40
18177;DHT22;9213;50.858;3.964;2022-08-23T04:35:08;22.30;53.50
18177;DHT22;9213;50.858;3.964;2022-08-23T04:37:36;22.30;54.20
18177;DHT22;9213;50.858;3.964;2022-08-23T04:40:03;22.20;53.60
18177;DHT22;9213;50.858;3.964;2022-08-23T04:42:48;22.20;53.80
18177;DHT22;9213;50.858;3.964;2022-08-23T04:45:15;22.20;53.80
18177;DHT22;9213;50.858;3.964;2022-08-23T04:47:41;22.20;54.00
18177;DHT22;9213;50.858;3.964;2022-08-23T04:50:10;22.20;54.10
18177;DHT22;9213;50.858;3.964;2022-08-23T04:52:37;22.20;54.00
18177;DHT22;9213;50.858;3.964;2022-08-23T04:55:05;22.30;53.30
18177;DHT22;9213;50.858;3.964;2022-08-23T04:57:32;22.30;52.80
18177;DHT22;9213;50.858;3.964;2022-08-23T05:00:00;22.20;52.90
18177;DHT22;9213;50.858;3.964;2022-08-23T05:02:26;22.10;53.20
18177;DHT22;9213;50.858;3.964;2022-08-23T05:04:53;22.10;53.50
18177;DHT22;9213;50.858;3.964;2022-08-23T05:07:22;22.10;53.80
18177;DHT22;9213;50.858;3.964;2022-08-23T05:09:48;22.20;54.10
18177;DHT22;9213;50.858;3.964;2022-08-23T05:12:15;22.20;53.90
18177;DHT22;9213;50.858;3.964;2022-08-23T05:14:42;22.20;54.00
18177;DHT22;9213;50.858;3.964;2022-08-23T05:17:09;22.30;53.90
18177;DHT22;9213;50.858;3.964;2022-08-23T05:19:36;22.30;53.90
18177;DHT22;9213;50.858;3.964;2022-08-23T05:22:03;22.30;53.80
18177;DHT22;9213;50.858;3.964;2022-08-23T05:24:31;22.30;53.80
18177;DHT22;9213;50.858;3.964;2022-08-23T05:26:58;22.30;53.90
18177;DHT22;9213;50.858;3.964;2022-08-23T05:29:25;22.30;53.70
18177;DHT22;9213;50.858;3.964;2022-08-23T05:31:52;22.30;53.60
18177;DHT22;9213;50.858;3.964;2022-08-23T05:34:19;22.40;53.60
18177;DHT22;9213;50.858;3.964;2022-08-23T05:36:46;22.40;53.80
18177;DHT22;9213;50.858;3.964;2022-08-23T05:39:13;22.40;53.80
18177;DHT22;9213;50.858;3.964;2022-08-23T05:41:42;22.40;53.90
18177;DHT22;9213;50.858;3.964;2022-08-23T05:44:10;22.40;53.80
18177;DHT22;9213;50.858;3.964;2022-08-23T05:46:37;22.40;53.80
18177;DHT22;9213;50.858;3.964;2022-08-23T05:49:04;22.40;53.80
18177;DHT22;9213;50.858;3.964;2022-08-23T05:51:33;22.50;54.10
18177;DHT22;9213;50.858;3.964;2022-08-23T05:54:04;22.50;54.80
18177;DHT22;9213;50.858;3.964;2022-08-23T05:56:33;22.50;54.00
18177;DHT22;9213;50.858;3.964;2022-08-23T05:59:04;22.50;54.10
18177;DHT22;9213;50.858;3.964;2022-08-23T06:01:33;22.60;54.30
18177;DHT22;9213;50.858;3.964;2022-08-23T06:04:02;22.60;54.10
18177;DHT22;9213;50.858;3.964;2022-08-23T06:06:30;22.60;54.20
18177;DHT22;9213;50.858;3.964;2022-08-23T06:08:57;22.60;54.20
18177;DHT22;9213;50.858;3.964;2022-08-23T06:11:25;22.60;54.00
18177;DHT22;9213;50.858;3.964;2022-08-23T06:13:55;22.70;54.20
18177;DHT22;9213;50.858;3.964;2022-08-23T06:16:26;22.70;53.80
18177;DHT22;9213;50.858;3.964;2022-08-23T06:18:54;22.70;53.60
18177;DHT22;9213;50.858;3.964;2022-08-23T06:21:23;22.70;53.40
18177;DHT22;9213;50.858;3.964;2022-08-23T06:23:51;22.80;53.40
18177;DHT22;9213;50.858;3.964;2022-08-23T06:26:19;22.80;53.40
18177;DHT22;9213;50.858;3.964;2022-08-23T06:28:47;22.80;53.30
18177;DHT22;9213;50.858;3.964;2022-08-23T06:31:14;22.80;53.50
18177;DHT22;9213;50.858;3.964;2022-08-23T06:34:03;22.80;53.50
18177;DHT22;9213;50.858;3.964;2022-08-23T06:36:30;22.90;53.70
18177;DHT22;9213;50.858;3.964;2022-08-23T06:38:57;23.00;53.70
18177;DHT22;9213;50.858;3.964;2022-08-23T06:41:24;23.00;53.30
18177;DHT22;9213;50.858;3.964;2022-08-23T06:43:51;23.10;53.40
18177;DHT22;9213;50.858;3.964;2022-08-23T06:46:19;23.10;53.50
18177;DHT22;9213;50.858;3.964;2022-08-23T06:48:46;23.20;53.50
18177;DHT22;9213;50.858;3.964;2022-08-23T06:51:21;23.20;53.40
18177;DHT22;9213;50.858;3.964;2022-08-23T06:53:49;23.30;53.30
18177;DHT22;9213;50.858;3.964;2022-08-23T06:56:18;23.30;52.90
18177;DHT22;9213;50.858;3.964;2022-08-23T06:58:45;23.40;52.70
18177;DHT22;9213;50.858;3.964;2022-08-23T07:01:17;23.50;52.80
18177;DHT22;9213;50.858;3.964;2022-08-23T07:03:45;23.60;53.10
18177;DHT22;9213;50.858;3.964;2022-08-23T07:06:12;23.80;53.20
18177;DHT22;9213;50.858;3.964;2022-08-23T07:08:40;24.70;52.90
18177;DHT22;9213;50.858;3.964;2022-08-23T07:11:07;26.10;49.40
18177;DHT22;9213;50.858;3.964;2022-08-23T07:13:34;27.80;45.10
18177;DHT22;9213;50.858;3.964;2022-08-23T07:16:01;29.50;40.90
18177;DHT22;9213;50.858;3.964;2022-08-23T07:18:28;31.10;37.60
18177;DHT22;9213;50.858;3.964;2022-08-23T07:20:56;32.40;35.00
18177;DHT22;9213;50.858;3.964;2022-08-23T07:23:24;33.50;32.80
18177;DHT22;9213;50.858;3.964;2022-08-23T07:25:53;34.50;31.10
18177;DHT22;9213;50.858;3.964;2022-08-23T07:28:19;35.50;29.10
18177;DHT22;9213;50.858;3.964;2022-08-23T07:30:47;36.20;27.80
18177;DHT22;9213;50.858;3.964;2022-08-23T07:33:14;36.80;26.40
18177;DHT22;9213;50.858;3.964;2022-08-23T07:35:46;37.30;25.90
18177;DHT22;9213;50.858;3.964;2022-08-23T07:38:13;37.70;25.20
18177;DHT22;9213;50.858;3.964;2022-08-23T07:40:40;37.80;24.50
18177;DHT22;9213;50.858;3.964;2022-08-23T07:43:08;37.80;24.30
18177;DHT22;9213;50.858;3.964;2022-08-23T07:45:36;37.70;24.00
18177;DHT22;9213;50.858;3.964;2022-08-23T07:48:05;37.20;24.70
18177;DHT22;9213;50.858;3.964;2022-08-23T07:50:32;36.50;25.30
18177;DHT22;9213;50.858;3.964;2022-08-23T07:52:59;36.00;26.70
18177;DHT22;9213;50.858;3.964;2022-08-23T07:55:27;35.60;26.80
18177;DHT22;9213;50.858;3.964;2022-08-23T07:57:54;35.40;27.20
18177;DHT22;9213;50.858;3.964;2022-08-23T08:00:22;35.20;27.80
18177;DHT22;9213;50.858;3.964;2022-08-23T08:02:49;35.30;28.00
18177;DHT22;9213;50.858;3.964;2022-08-23T08:05:16;35.60;27.50
18177;DHT22;9213;50.858;3.964;2022-08-23T08:07:43;36.10;27.10
18177;DHT22;9213;50.858;3.964;2022-08-23T08:10:10;36.50;25.80
18177;DHT22;9213;50.858;3.964;2022-08-23T08:12:37;36.90;25.30
18177;DHT22;9213;50.858;3.964;2022-08-23T08:15:04;37.30;24.80
18177;DHT22;9213;50.858;3.964;2022-08-23T08:17:33;37.70;24.00
18177;DHT22;9213;50.858;3.964;2022-08-23T08:20:00;37.80;23.80
18177;DHT22;9213;50.858;3.964;2022-08-23T08:22:26;38.00;23.80
18177;DHT22;9213;50.858;3.964;2022-08-23T08:24:53;38.20;24.10
18177;DHT22;9213;50.858;3.964;2022-08-23T08:27:20;38.50;23.20
18177;DHT22;9213;50.858;3.964;2022-08-23T08:29:47;38.80;22.30
18177;DHT22;9213;50.858;3.964;2022-08-23T08:32:14;39.00;23.70
18177;DHT22;9213;50.858;3.964;2022-08-23T08:34:42;39.30;22.20
18177;DHT22;9213;50.858;3.964;2022-08-23T08:37:09;39.50;21.60
18177;DHT22;9213;50.858;3.964;2022-08-23T08:39:36;39.60;21.60
18177;DHT22;9213;50.858;3.964;2022-08-23T08:42:30;39.70;21.40
18177;DHT22;9213;50.858;3.964;2022-08-23T08:45:04;39.80;21.90
18177;DHT22;9213;50.858;3.964;2022-08-23T08:47:38;39.70;21.50
18177;DHT22;9213;50.858;3.964;2022-08-23T08:50:13;39.70;21.50
18177;DHT22;9213;50.858;3.964;2022-08-23T08:52:43;39.70;21.60
18177;DHT22;9213;50.858;3.964;2022-08-23T08:55:15;39.70;21.50
18177;DHT22;9213;50.858;3.964;2022-08-23T08:57:44;39.60;21.80
18177;DHT22;9213;50.858;3.964;2022-08-23T09:00:13;39.50;21.80
18177;DHT22;9213;50.858;3.964;2022-08-23T09:02:42;39.50;22.10
18177;DHT22;9213;50.858;3.964;2022-08-23T09:05:15;39.40;22.40
18177;DHT22;9213;50.858;3.964;2022-08-23T09:07:56;39.30;22.80
18177;DHT22;9213;50.858;3.964;2022-08-23T09:10:38;39.20;22.90
18177;DHT22;9213;50.858;3.964;2022-08-23T09:16:16;39.00;23.10
18177;DHT22;9213;50.858;3.964;2022-08-23T09:18:49;38.90;23.20
18177;DHT22;9213;50.858;3.964;2022-08-23T09:21:20;38.70;23.50
18177;DHT22;9213;50.858;3.964;2022-08-23T09:23:48;38.60;23.40
18177;DHT22;9213;50.858;3.964;2022-08-23T09:26:21;38.50;23.90
18177;DHT22;9213;50.858;3.964;2022-08-23T09:28:50;38.40;24.10
18177;DHT22;9213;50.858;3.964;2022-08-23T09:31:35;38.30;23.90
18177;DHT22;9213;50.858;3.964;2022-08-23T09:34:02;38.10;25.00
18177;DHT22;9213;50.858;3.964;2022-08-23T09:36:33;37.90;24.70
18177;DHT22;9213;50.858;3.964;2022-08-23T09:39:04;37.90;25.40
18177;DHT22;9213;50.858;3.964;2022-08-23T09:41:33;38.10;25.20
18177;DHT22;9213;50.858;3.964;2022-08-23T09:44:02;38.20;24.80
18177;DHT22;9213;50.858;3.964;2022-08-23T09:46:32;38.10;25.20
18177;DHT22;9213;50.858;3.964;2022-08-23T09:49:21;38.00;25.30
18177;DHT22;9213;50.858;3.964;2022-08-23T09:51:50;37.70;25.70
18177;DHT22;9213;50.858;3.964;2022-08-23T09:54:19;37.20;26.30
18177;DHT22;9213;50.858;3.964;2022-08-23T09:56:51;36.80;26.80
18177;DHT22;9213;50.858;3.964;2022-08-23T09:59:21;36.80;27.20
18177;DHT22;9213;50.858;3.964;2022-08-23T10:01:48;36.90;27.40
18177;DHT22;9213;50.858;3.964;2022-08-23T10:04:21;37.10;27.20
18177;DHT22;9213;50.858;3.964;2022-08-23T10:06:51;37.20;27.20
18177;DHT22;9213;50.858;3.964;2022-08-23T10:09:27;37.00;27.30
18177;DHT22;9213;50.858;3.964;2022-08-23T10:11:55;36.80;26.70
18177;DHT22;9213;50.858;3.964;2022-08-23T10:14:23;36.50;27.80
18177;DHT22;9213;50.858;3.964;2022-08-23T10:17:00;36.50;28.00
18177;DHT22;9213;50.858;3.964;2022-08-23T10:19:37;36.70;27.70
18177;DHT22;9213;50.858;3.964;2022-08-23T10:22:13;36.70;27.50
18177;DHT22;9213;50.858;3.964;2022-08-23T10:24:47;36.50;27.60
18177;DHT22;9213;50.858;3.964;2022-08-23T10:27:27;36.20;28.20
18177;DHT22;9213;50.858;3.964;2022-08-23T10:30:17;36.00;29.50
18177;DHT22;9213;50.858;3.964;2022-08-23T10:32:52;35.70;29.50
18177;DHT22;9213;50.858;3.964;2022-08-23T10:35:27;35.60;30.50
18177;DHT22;9213;50.858;3.964;2022-08-23T10:38:14;35.40;30.20
18177;DHT22;9213;50.858;3.964;2022-08-23T10:40:50;35.40;30.50
18177;DHT22;9213;50.858;3.964;2022-08-23T10:43:24;35.30;30.50
18177;DHT22;9213;50.858;3.964;2022-08-23T10:45:54;35.40;30.40
18177;DHT22;9213;50.858;3.964;2022-08-23T10:48:24;35.40;29.50
18177;DHT22;9213;50.858;3.964;2022-08-23T10:50:55;35.40;29.80
18177;DHT22;9213;50.858;3.964;2022-08-23T10:53:31;35.40;29.60
18177;DHT22;9213;50.858;3.964;2022-08-23T10:55:59;35.20;30.00
18177;DHT22;9213;50.858;3.964;2022-08-23T10:58:33;35.10;30.20
18177;DHT22;9213;50.858;3.964;2022-08-23T11:01:03;35.10;30.50
18177;DHT22;9213;50.858;3.964;2022-08-23T11:03:34;35.00;30.20
18177;DHT22;9213;50.858;3.964;2022-08-23T11:06:30;34.90;30.40
18177;DHT22;9213;50.858;3.964;2022-08-23T11:09:09;35.00;31.00
18177;DHT22;9213;50.858;3.964;2022-08-23T11:12:10;34.90;30.80
18177;DHT22;9213;50.858;3.964;2022-08-23T11:14:40;35.20;31.30
18177;DHT22;9213;50.858;3.964;2022-08-23T11:17:10;35.40;30.60
18177;DHT22;9213;50.858;3.964;2022-08-23T11:19:51;35.50;30.50
18177;DHT22;9213;50.858;3.964;2022-08-23T11:22:19;35.70;30.50
18177;DHT22;9213;50.858;3.964;2022-08-23T11:24:55;35.80;29.80
18177;DHT22;9213;50.858;3.964;2022-08-23T11:27:32;36.10;29.80
18177;DHT22;9213;50.858;3.964;2022-08-23T11:30:37;36.10;29.90
18177;DHT22;9213;50.858;3.964;2022-08-23T11:33:14;36.30;29.40
18177;DHT22;9213;50.858;3.964;2022-08-23T11:35:44;36.50;28.20
18177;DHT22;9213;50.858;3.964;2022-08-23T11:38:13;36.50;27.90
18177;DHT22;9213;50.858;3.964;2022-08-23T11:41:13;36.50;27.50
18177;DHT22;9213;50.858;3.964;2022-08-23T11:43:45;36.60;28.20
18177;DHT22;9213;50.858;3.964;2022-08-23T11:46:30;36.60;27.50
18177;DHT22;9213;50.858;3.964;2022-08-23T11:52:13;36.80;28.20
18177;DHT22;9213;50.858;3.964;2022-08-23T11:55:00;36.80;27.30
18177;DHT22;9213;50.858;3.964;2022-08-23T11:57:43;36.70;27.60
18177;DHT22;9213;50.858;3.964;2022-08-23T12:00:18;36.50;27.30
18177;DHT22;9213;50.858;3.964;2022-08-23T12:02:57;36.40;27.80
18177;DHT22;9213;50.858;3.964;2022-08-23T12:11:15;36.30;27.50
18177;DHT22;9213;50.858;3.964;2022-08-23T12:14:00;36.20;27.80
18177;DHT22;9213;50.858;3.964;2022-08-23T12:16:36;36.20;28.30
18177;DHT22;9213;50.858;3.964;2022-08-23T12:19:07;36.20;28.30
18177;DHT22;9213;50.858;3.964;2022-08-23T12:21:42;36.30;28.40
18177;DHT22;9213;50.858;3.964;2022-08-23T12:24:21;36.50;27.80
18177;DHT22;9213;50.858;3.964;2022-08-23T12:26:54;36.70;27.80
18177;DHT22;9213;50.858;3.964;2022-08-23T12:29:51;36.90;27.20
18177;DHT22;9213;50.858;3.964;2022-08-23T12:32:25;37.20;26.90
18177;DHT22;9213;50.858;3.964;2022-08-23T12:35:05;37.30;26.40
18177;DHT22;9213;50.858;3.964;2022-08-23T12:37:39;37.50;26.00
18177;DHT22;9213;50.858;3.964;2022-08-23T12:40:14;37.70;25.50
18177;DHT22;9213;50.858;3.964;2022-08-23T12:42:41;37.60;25.10
18177;DHT22;9213;50.858;3.964;2022-08-23T12:45:16;37.50;25.50
18177;DHT22;9213;50.858;3.964;2022-08-23T12:47:56;37.40;25.60
18177;DHT22;9213;50.858;3.964;2022-08-23T12:50:26;37.40;26.00
18177;DHT22;9213;50.858;3.964;2022-08-23T12:52:59;37.30;26.00
18177;DHT22;9213;50.858;3.964;2022-08-23T12:55:30;37.30;26.60
18177;DHT22;9213;50.858;3.964;2022-08-23T12:57:58;37.40;25.90
18177;DHT22;9213;50.858;3.964;2022-08-23T13:00:30;37.40;25.50
18177;DHT22;9213;50.858;3.964;2022-08-23T13:03:00;37.50;25.70
18177;DHT22;9213;50.858;3.964;2022-08-23T13:05:36;37.50;26.00
18177;DHT22;9213;50.858;3.964;2022-08-23T13:08:07;37.60;25.60
18177;DHT22;9213;50.858;3.964;2022-08-23T13:10:36;37.60;25.60
18177;DHT22;9213;50.858;3.964;2022-08-23T13:13:03;37.70;25.70
18177;DHT22;9213;50.858;3.964;2022-08-23T13:15:45;37.70;25.30
18177;DHT22;9213;50.858;3.964;2022-08-23T13:18:23;37.70;25.00
18177;DHT22;9213;50.858;3.964;2022-08-23T13:21:15;37.70;25.90
18177;DHT22;9213;50.858;3.964;2022-08-23T13:23:43;37.80;25.40
18177;DHT22;9213;50.858;3.964;2022-08-23T13:29:09;37.70;25.50
18177;DHT22;9213;50.858;3.964;2022-08-23T13:31:52;37.70;25.50
18177;DHT22;9213;50.858;3.964;2022-08-23T13:34:33;37.80;25.30
18177;DHT22;9213;50.858;3.964;2022-08-23T13:37:02;37.70;25.10
18177;DHT22;9213;50.858;3.964;2022-08-23T13:39:30;37.60;25.70
18177;DHT22;9213;50.858;3.964;2022-08-23T13:41:58;37.60;24.20
18177;DHT22;9213;50.858;3.964;2022-08-23T13:44:25;37.60;24.60
18177;DHT22;9213;50.858;3.964;2022-08-23T13:46:54;37.60;23.90
18177;DHT22;9213;50.858;3.964;2022-08-23T13:49:23;37.60;24.40
18177;DHT22;9213;50.858;3.964;2022-08-23T13:52:05;37.50;24.50
18177;DHT22;9213;50.858;3.964;2022-08-23T13:54:33;37.60;24.60
18177;DHT22;9213;50.858;3.964;2022-08-23T13:57:02;37.40;24.10
18177;DHT22;9213;50.858;3.964;2022-08-23T13:59:32;37.40;25.10
18177;DHT22;9213;50.858;3.964;2022-08-23T14:02:05;37.30;24.90
18177;DHT22;9213;50.858;3.964;2022-08-23T14:04:33;37.20;24.90
18177;DHT22;9213;50.858;3.964;2022-08-23T14:07:00;37.00;25.40
18177;DHT22;9213;50.858;3.964;2022-08-23T14:09:27;37.00;25.20
18177;DHT22;9213;50.858;3.964;2022-08-23T14:11:56;36.90;24.90
18177;DHT22;9213;50.858;3.964;2022-08-23T14:14:24;37.00;25.40
18177;DHT22;9213;50.858;3.964;2022-08-23T14:16:51;37.00;25.30
18177;DHT22;9213;50.858;3.964;2022-08-23T14:19:20;37.10;25.10
18177;DHT22;9213;50.858;3.964;2022-08-23T14:21:47;37.00;25.00
18177;DHT22;9213;50.858;3.964;2022-08-23T14:24:14;37.00;25.10
18177;DHT22;9213;50.858;3.964;2022-08-23T14:26:41;36.90;25.20
18177;DHT22;9213;50.858;3.964;2022-08-23T14:29:08;36.90;25.30
18177;DHT22;9213;50.858;3.964;2022-08-23T14:31:35;36.80;25.30
18177;DHT22;9213;50.858;3.964;2022-08-23T14:34:02;36.70;25.50
18177;DHT22;9213;50.858;3.964;2022-08-23T14:36:32;36.60;25.70
18177;DHT22;9213;50.858;3.964;2022-08-23T14:38:58;36.50;25.70
18177;DHT22;9213;50.858;3.964;2022-08-23T14:41:26;36.50;26.10
18177;DHT22;9213;50.858;3.964;2022-08-23T14:43:54;36.50;25.90
18177;DHT22;9213;50.858;3.964;2022-08-23T14:46:21;36.30;26.20
18177;DHT22;9213;50.858;3.964;2022-08-23T14:48:49;36.30;26.00
18177;DHT22;9213;50.858;3.964;2022-08-23T14:51:23;36.30;26.40
18177;DHT22;9213;50.858;3.964;2022-08-23T14:53:52;36.30;26.00
18177;DHT22;9213;50.858;3.964;2022-08-23T14:56:19;36.10;26.50
18177;DHT22;9213;50.858;3.964;2022-08-23T14:58:47;36.10;26.30
18177;DHT22;9213;50.858;3.964;2022-08-23T15:01:14;36.10;26.50
18177;DHT22;9213;50.858;3.964;2022-08-23T15:03:41;36.00;26.80
18177;DHT22;9213;50.858;3.964;2022-08-23T15:06:08;36.00;26.30
18177;DHT22;9213;50.858;3.964;2022-08-23T15:08:35;35.90;25.70
18177;DHT22;9213;50.858;3.964;2022-08-23T15:11:04;35.80;25.90
18177;DHT22;9213;50.858;3.964;2022-08-23T15:13:32;35.70;26.60
18177;DHT22;9213;50.858;3.964;2022-08-23T15:15:59;35.70;26.90
18177;DHT22;9213;50.858;3.964;2022-08-23T15:18:26;35.70;26.90
18177;DHT22;9213;50.858;3.964;2022-08-23T15:20:53;35.70;26.70
18177;DHT22;9213;50.858;3.964;2022-08-23T15:23:20;35.70;27.10
18177;DHT22;9213;50.858;3.964;2022-08-23T15:25:47;35.70;27.20
18177;DHT22;9213;50.858;3.964;2022-08-23T15:28:17;35.60;26.70
18177;DHT22;9213;50.858;3.964;2022-08-23T15:30:44;35.60;26.40
18177;DHT22;9213;50.858;3.964;2022-08-23T15:33:12;35.60;26.10
18177;DHT22;9213;50.858;3.964;2022-08-23T15:35:40;35.50;26.50
18177;DHT22;9213;50.858;3.964;2022-08-23T15:38:08;35.50;26.60
18177;DHT22;9213;50.858;3.964;2022-08-23T15:40:35;35.40;26.60
18177;DHT22;9213;50.858;3.964;2022-08-23T15:43:02;35.40;27.00
18177;DHT22;9213;50.858;3.964;2022-08-23T15:45:30;35.30;27.40
18177;DHT22;9213;50.858;3.964;2022-08-23T15:47:58;35.30;27.60
18177;DHT22;9213;50.858;3.964;2022-08-23T15:50:28;35.30;27.40
18177;DHT22;9213;50.858;3.964;2022-08-23T15:52:56;35.20;27.60
18177;DHT22;9213;50.858;3.964;2022-08-23T15:55:24;35.20;27.50
18177;DHT22;9213;50.858;3.964;2022-08-23T15:57:53;35.10;27.90
18177;DHT22;9213;50.858;3.964;2022-08-23T16:00:23;35.10;27.60
18177;DHT22;9213;50.858;3.964;2022-08-23T16:02:53;35.10;27.70
18177;DHT22;9213;50.858;3.964;2022-08-23T16:05:20;35.10;27.80
18177;DHT22;9213;50.858;3.964;2022-08-23T16:07:47;35.00;28.10
18177;DHT22;9213;50.858;3.964;2022-08-23T16:10:15;35.00;28.40
18177;DHT22;9213;50.858;3.964;2022-08-23T16:12:42;35.00;27.70
18177;DHT22;9213;50.858;3.964;2022-08-23T16:15:09;35.10;27.60
18177;DHT22;9213;50.858;3.964;2022-08-23T16:17:37;35.00;27.50
18177;DHT22;9213;50.858;3.964;2022-08-23T16:20:07;35.00;27.70